Weather at Angel Island Nike Base Heliport [CLOSED]

Public forecast

Using degrees Fahrenheit for public forecast. Weather courtesy of forecast.io.

Closest aviation weather report (METAR) to Angel Island Nike Base Heliport

Closest report is Metropolitan Oakland International Airport, 13.1 nm (24.2 km) SE.

2024/05/30 22:53 (retrieved 24 minutes ago)

KOAK 302253Z 30012KT 10SM FEW250 23/12 A2992 RMK AO2 SLP131 T02330117

Closest aviation forecast (TAF) to Angel Island Nike Base Heliport

Closest forecast is Metropolitan Oakland International Airport, 13.1 nm (24.2 km) SE.

2024/05/30 18:22 (retrieved 5 hours ago)

TAF KOAK 301720Z 3018/3124 30004KT P6SM SKC FM302000 28013KT P6SM SKC FM310400 VRB04KT P6SM SKC FM312000 27011KT P6SM SKC